Time;durP1;ratioP1;P1;durP2;ratioP2;P2;SDS_P1;SDS_P2;PMS_P1;PMS_P2;Temp;Humidity;BMP_temperature;BMP_pressure;BME280_temperature;BME280_humidity;BME280_pressure;Samples;Min_cycle;Max_cycle;Signal;HPM_P1;HPM_P2
2023/05/08 00:01:21;;;;;;;15.68;12.45;;;;;;;;;;4981390;28;20091;-87
2023/05/08 00:04:06;;;;;;;17.00;13.07;;;;;;;;;;5010339;28;20168;-87
2023/05/08 00:06:51;;;;;;;19.58;12.95;;;;;;;;;;4997761;28;20562;-87
2023/05/08 00:09:37;;;;;;;19.77;12.70;;;;;;;;;;5010358;28;20197;-87
2023/05/08 00:12:21;;;;;;;16.63;12.48;;;;;;;;;;4996575;28;20104;-86
2023/05/08 00:15:06;;;;;;;16.63;12.63;;;;;;;;;;5011183;28;20032;-87
2023/05/08 00:17:51;;;;;;;16.10;11.43;;;;;;;;;;4995856;28;20045;-87
2023/05/08 00:20:36;;;;;;;15.98;11.95;;;;;;;;;;5009772;28;20073;-87
2023/05/08 00:23:21;;;;;;;16.30;11.88;;;;;;;;;;4982594;28;20056;-87
2023/05/08 00:26:06;;;;;;;17.30;11.93;;;;;;;;;;5013873;28;20084;-87
2023/05/08 00:28:50;;;;;;;15.88;12.07;;;;;;;;;;4980006;28;20506;-87
2023/05/08 00:31:34;;;;;;;16.02;12.20;;;;;;;;;;4994697;28;20125;-87
2023/05/08 00:34:19;;;;;;;15.38;11.73;;;;;;;;;;5013810;28;20113;-87
2023/05/08 00:37:03;;;;;;;13.98;11.60;;;;;;;;;;4983959;28;20506;-87
2023/05/08 00:39:48;;;;;;;14.27;11.57;;;;;;;;;;5014119;28;20459;-87
2023/05/08 00:42:32;;;;;;;16.15;12.02;;;;;;;;;;4999658;28;20092;-87
2023/05/08 00:45:17;;;;;;;15.43;11.65;;;;;;;;;;5013628;28;20044;-87
2023/05/08 00:48:03;;;;;;;16.02;11.85;;;;;;;;;;5001470;28;20856;-88
2023/05/08 00:50:48;;;;;;;15.15;12.27;;;;;;;;;;5013780;28;20437;-87
2023/05/08 00:53:33;;;;;;;15.13;11.60;;;;;;;;;;5013450;28;20068;-87
2023/05/08 00:56:20;;;;;;;15.27;11.00;;;12.00;99.90;;;;;;5014016;28;20044;-86
2023/05/08 00:59:09;;;;;;;15.38;11.75;;;;;;;;;;4999441;28;20049;-87
2023/05/08 01:01:54;;;;;;;15.05;11.70;;;;;;;;;;5012686;28;20045;-87
2023/05/08 01:04:43;;;;;;;14.25;11.70;;;11.90;99.90;;;;;;5013524;28;20044;-87
2023/05/08 01:07:27;;;;;;;16.20;12.65;;;;;;;;;;5014105;28;20041;-87
2023/05/08 01:10:12;;;;;;;14.82;12.32;;;;;;;;;;5013040;28;20045;-88
2023/05/08 01:13:05;;;;;;;17.25;13.43;;;;;;;;;;5012311;28;20061;-88
2023/05/08 01:15:53;;;;;;;15.55;11.52;;;;;;;;;;5013413;28;20103;-87
2023/05/08 01:18:47;;;;;;;16.17;12.32;;;;;;;;;;4999458;28;20083;-87
2023/05/08 01:21:31;;;;;;;;;;;11.60;99.90;;;;;;5013164;28;20061;-87
2023/05/08 01:24:46;;;;;;;14.77;12.32;;;11.60;99.90;;;;;;4998951;28;19917;-87
2023/05/08 01:27:37;;;;;;;17.20;12.20;;;;;;;;;;4998896;28;20540;-87
2023/05/08 01:30:31;;;;;;;16.33;12.38;;;;;;;;;;5013522;28;20406;-87
2023/05/08 01:33:34;;;;;;;16.20;12.48;;;;;;;;;;5012443;28;20128;-87
2023/05/08 01:36:22;;;;;;;16.03;12.37;;;;;;;;;;5013675;28;20113;-88
2023/05/08 01:39:13;;;;;;;17.80;12.20;;;;;;;;;;4999943;28;20057;-87
2023/05/08 01:42:07;;;;;;;15.60;11.88;;;;;;;;;;5016808;28;20080;-88
2023/05/08 01:44:56;;;;;;;17.73;13.15;;;;;;;;;;5011782;28;20045;-88
2023/05/08 01:47:41;;;;;;;18.60;12.52;;;;;;;;;;5013240;28;20045;-87
2023/05/08 01:50:31;;;;;;;16.60;12.80;;;;;;;;;;5007352;28;20041;-87
2023/05/08 01:53:39;;;;;;;16.83;13.00;;;11.10;99.90;;;;;;5013292;28;20096;-88
2023/05/08 01:56:25;;;;;;;16.67;13.18;;;;;;;;;;4998336;28;20041;-87
2023/05/08 01:59:13;;;;;;;16.77;12.45;;;;;;;;;;5012812;28;20049;-87
2023/05/08 02:01:58;;;;;;;14.95;11.98;;;;;;;;;;5011629;28;20109;-87
2023/05/08 02:04:43;;;;;;;17.48;13.05;;;;;;;;;;5011922;28;20449;-86
2023/05/08 02:07:28;;;;;;;17.02;12.95;;;;;;;;;;5012054;28;20068;-87
2023/05/08 02:10:13;;;;;;;17.05;12.65;;;;;;;;;;5001356;28;20053;-86
2023/05/08 02:13:00;;;;;;;18.88;13.70;;;10.80;99.90;;;;;;5011298;28;20088;-86
2023/05/08 02:15:49;;;;;;;16.25;12.98;;;;;;;;;;4986539;28;20128;-87
2023/05/08 02:18:34;;;;;;;19.35;13.60;;;;;;;;;;4999315;28;20033;-87
2023/05/08 02:21:19;;;;;;;16.83;13.23;;;;;;;;;;5012583;28;20513;-86
2023/05/08 02:24:05;;;;;;;18.00;12.25;;;;;;;;;;5011410;28;20068;-87
2023/05/08 02:26:52;;;;;;;18.38;13.35;;;;;;;;;;5012053;28;20044;-87
2023/05/08 02:29:37;;;;;;;19.67;14.48;;;;;;;;;;5012500;28;20049;-87
2023/05/08 02:32:25;;;;;;;17.83;13.40;;;;;;;;;;5000086;28;20501;-87
2023/05/08 02:35:12;;;;;;;19.08;13.55;;;;;;;;;;5011910;28;20033;-87
2023/05/08 02:37:57;;;;;;;19.02;13.93;;;;;;;;;;5011012;28;20552;-86
2023/05/08 02:40:48;;;;;;;17.88;13.13;;;;;;;;;;4998665;28;20141;-87
2023/05/08 02:43:33;;;;;;;18.05;13.40;;;;;;;;;;5012354;28;20084;-87
2023/05/08 02:46:33;;;;;;;17.58;12.82;;;;;;;;;;4977383;28;20084;-87
2023/05/08 02:49:27;;;;;;;18.25;13.40;;;;;;;;;;4999066;28;20053;-87
2023/05/08 02:52:18;;;;;;;16.63;12.85;;;;;;;;;;5011724;28;20729;-87
2023/05/08 02:55:07;;;;;;;19.63;12.20;;;;;;;;;;5011779;28;20497;-87
2023/05/08 02:58:22;;;;;;;18.20;13.50;;;10.50;99.90;;;;;;4998228;28;20397;-86
2023/05/08 03:01:13;;;;;;;17.85;13.35;;;;;;;;;;5011794;28;20037;-87
2023/05/08 03:04:05;;;;;;;18.27;13.73;;;;;;;;;;5010220;28;20406;-86
2023/05/08 03:06:50;;;;;;;17.40;12.48;;;;;;;;;;5011053;28;20513;-86
2023/05/08 03:09:43;;;;;;;18.80;14.35;;;;;;;;;;4997024;28;20057;-87
2023/05/08 03:12:30;;;;;;;19.02;13.07;;;;;;;;;;5010802;28;20044;-88
2023/05/08 03:15:22;;;;;;;20.50;13.32;;;;;;;;;;5011402;28;20037;-87
2023/05/08 03:18:10;;;;;;;16.17;12.05;;;;;;;;;;5010229;28;20037;-87
2023/05/08 03:20:57;;;;;;;16.70;12.07;;;;;;;;;;5011322;28;20095;-87
2023/05/08 03:23:43;;;;;;;18.58;13.73;;;;;;;;;;5010801;28;20033;-88
2023/05/08 03:26:27;;;;;;;20.58;12.77;;;;;;;;;;5011531;28;20029;-88
2023/05/08 03:29:13;;;;;;;19.02;12.93;;;;;;;;;;5011162;28;20045;-87
2023/05/08 03:32:01;;;;;;;18.55;13.13;;;;;;;;;;4999327;28;20044;-87
2023/05/08 03:34:46;;;;;;;16.88;12.95;;;;;;;;;;5011540;28;20502;-87
2023/05/08 03:37:30;;;;;;;17.73;12.65;;;;;;;;;;5011658;28;20521;-88
2023/05/08 03:40:15;;;;;;;19.52;14.15;;;;;;;;;;4997295;28;20036;-87
2023/05/08 03:43:00;;;;;;;16.88;12.27;;;;;;;;;;4977373;28;20088;-87
2023/05/08 03:45:45;;;;;;;18.23;13.13;;;;;;;;;;5010597;28;20077;-88
2023/05/08 03:48:32;;;;;;;20.65;13.60;;;;;;;;;;5011356;28;20462;-87
2023/05/08 03:51:17;;;;;;;18.60;13.48;;;;;;;;;;5010984;28;20092;-87
2023/05/08 03:54:01;;;;;;;17.30;12.32;;;;;;;;;;4979942;28;20060;-87
2023/05/08 03:56:46;;;;;;;18.35;13.23;;;;;;;;;;5010557;28;20041;-87
2023/05/08 03:59:42;;;;;;;26.23;13.15;;;;;;;;;;4981229;28;20414;-87
2023/05/08 04:02:29;;;;;;;17.83;12.48;;;;;;;;;;5012056;28;20111;-87
2023/05/08 04:05:17;;;;;;;17.73;12.85;;;;;;;;;;5014717;28;20403;-88
2023/05/08 04:08:05;;;;;;;18.13;12.63;;;;;;;;;;5014614;28;20520;-87
2023/05/08 04:10:54;;;;;;;18.05;13.57;;;;;;;;;;5013978;28;20453;-87
2023/05/08 04:13:43;;;;;;;18.42;13.50;;;;;;;;;;5015221;28;20041;-87
2023/05/08 04:16:28;;;;;;;18.35;12.60;;;;;;;;;;5015057;28;20048;-87
2023/05/08 04:19:17;;;;;;;18.17;12.30;;;;;;;;;;5014228;28;20422;-87
2023/05/08 04:22:06;;;;;;;17.48;12.52;;;9.90;99.90;;;;;;5014800;28;20095;-87
2023/05/08 04:24:52;;;;;;;16.73;12.23;;;;;;;;;;5014729;28;20099;-87
2023/05/08 04:27:36;;;;;;;18.23;12.60;;;;;;;;;;5013936;28;20387;-87
2023/05/08 04:30:21;;;;;;;16.92;11.90;;;;;;;;;;5013098;28;20048;-87
2023/05/08 04:33:06;;;;;;;18.92;13.15;;;;;;;;;;5010422;28;20041;-87
2023/05/08 04:35:51;;;;;;;18.55;12.85;;;;;;;;;;5014774;28;20111;-87
2023/05/08 04:38:36;;;;;;;18.38;12.88;;;;;;;;;;5013715;28;20040;-87
2023/05/08 04:41:21;;;;;;;18.50;12.68;;;;;;;;;;4999219;28;20543;-87
2023/05/08 04:44:06;;;;;;;17.77;12.55;;;;;;;;;;5013148;28;20056;-87
2023/05/08 04:46:50;;;;;;;18.48;13.27;;;;;;;;;;5007439;28;20048;-88
2023/05/08 04:49:35;;;;;;;14.60;11.68;;;;;;;;;;5012865;28;20446;-88
2023/05/08 04:52:20;;;;;;;18.13;12.50;;;;;;;;;;5012680;28;20121;-87
2023/05/08 04:55:04;;;;;;;17.80;12.07;;;;;;;;;;5013309;28;20053;-87
2023/05/08 04:57:49;;;;;;;16.95;11.73;;;;;;;;;;5000369;28;20041;-87
2023/05/08 05:00:34;;;;;;;17.15;12.70;;;;;;;;;;4999380;28;20096;-88
2023/05/08 05:03:18;;;;;;;15.77;12.07;;;;;;;;;;5013646;28;20115;-87
2023/05/08 05:06:03;;;;;;;15.80;11.98;;;;;;;;;;5013109;28;20036;-89
2023/05/08 05:08:48;;;;;;;16.27;11.35;;;;;;;;;;4979080;28;20084;-87
2023/05/08 05:11:33;;;;;;;15.77;12.23;;;;;;;;;;5000717;28;20049;-88
2023/05/08 05:14:18;;;;;;;15.10;11.07;;;;;;;;;;5012326;28;20037;-88
2023/05/08 05:17:02;;;;;;;17.23;11.52;;;;;;;;;;5012987;28;20510;-88
2023/05/08 05:19:47;;;;;;;15.52;11.65;;;;;;;;;;5013797;28;20061;-88
2023/05/08 05:22:32;;;;;;;17.35;12.73;;;;;;;;;;4979005;28;20081;-85
2023/05/08 05:25:17;;;;;;;16.50;11.93;;;;;;;;;;5012797;28;20045;-86
2023/05/08 05:28:01;;;;;;;15.93;11.30;;;;;;;;;;5012794;28;20029;-89
2023/05/08 05:30:47;;;;;;;14.30;10.85;;;;;;;;;;5012583;28;20135;-88
2023/05/08 05:33:31;;;;;;;14.82;11.18;;;;;;;;;;4998648;28;20553;-88
2023/05/08 05:36:16;;;;;;;15.77;10.70;;;;;;;;;;5005842;28;20045;-86
2023/05/08 05:39:02;;;;;;;16.38;10.77;;;;;;;;;;4993699;28;20137;-87
2023/05/08 05:41:46;;;;;;;13.68;10.07;;;;;;;;;;4999731;28;20523;-87
2023/05/08 05:44:31;;;;;;;14.15;10.07;;;;;;;;;;5012327;28;20041;-88
2023/05/08 05:47:15;;;;;;;14.15;10.93;;;;;;;;;;5018102;28;20040;-88
2023/05/08 05:50:00;;;;;;;15.40;11.00;;;;;;;;;;5013496;28;20176;-87
2023/05/08 05:52:44;;;;;;;18.48;10.07;;;;;;;;;;4983726;28;20084;-87
2023/05/08 05:55:29;;;;;;;13.50;10.20;;;;;;;;;;5013065;28;20041;-87
2023/05/08 05:58:15;;;;;;;12.40;9.50;;;;;;;;;;4996292;28;20092;-88
2023/05/08 06:01:00;;;;;;;14.13;10.15;;;;;;;;;;5016873;28;20083;-93
2023/05/08 06:03:44;;;;;;;13.63;9.55;;;;;;;;;;5012944;28;20060;-89
2023/05/08 06:06:30;;;;;;;12.80;9.35;;;;;;;;;;5018511;28;20504;-87
2023/05/08 06:09:15;;;;;;;11.98;9.00;;;;;;;;;;4993291;28;20084;-88
2023/05/08 06:12:00;;;;;;;18.88;10.13;;;;;;;;;;5004763;28;20041;-89
2023/05/08 06:14:45;;;;;;;12.70;9.05;;;;;;;;;;4996652;28;20112;-89
2023/05/08 06:17:30;;;;;;;13.65;9.63;;;;;;;;;;5014289;28;20040;-88
2023/05/08 06:20:15;;;;;;;10.45;8.20;;;;;;;;;;5006599;28;20052;-88
2023/05/08 06:22:59;;;;;;;11.55;9.45;;;;;;;;;;5001569;28;20037;-88
2023/05/08 06:25:44;;;;;;;12.05;8.93;;;;;;;;;;5011582;28;20087;-89
2023/05/08 06:28:28;;;;;;;10.85;9.30;;;;;;;;;;5003284;28;20513;-88
2023/05/08 06:31:13;;;;;;;13.52;8.82;;;;;;;;;;5020149;28;20104;-88
2023/05/08 06:33:58;;;;;;;11.50;9.23;;;;;;;;;;5005646;28;20059;-88
2023/05/08 06:36:42;;;;;;;10.35;8.90;;;;;;;;;;5022714;28;20036;-88
2023/05/08 06:39:27;;;;;;;11.75;8.95;;;;;;;;;;4996433;28;20049;-89
2023/05/08 06:42:11;;;;;;;11.38;9.57;;;;;;;;;;5018398;28;20040;-88
2023/05/08 06:44:56;;;;;;;11.10;8.80;;;;;;;;;;4998513;28;20111;-89
2023/05/08 06:47:40;;;;;;;11.23;8.88;;;;;;;;;;4990289;28;20508;-87
2023/05/08 06:50:25;;;;;;;10.35;8.90;;;;;;;;;;4986641;28;20080;-87
2023/05/08 06:53:09;;;;;;;12.82;8.75;;;;;;;;;;5011054;28;20056;-87
2023/05/08 06:55:54;;;;;;;10.82;9.13;;;;;;;;;;5011980;28;20092;-87
2023/05/08 06:58:38;;;;;;;11.63;8.73;;;;;;;;;;5010599;28;20505;-87
2023/05/08 07:01:23;;;;;;;11.68;8.93;;;;;;;;;;5010865;28;20505;-89
2023/05/08 07:04:07;;;;;;;12.40;9.38;;;;;;;;;;5011843;28;20069;-87
2023/05/08 07:06:52;;;;;;;9.82;8.30;;;;;;;;;;5011149;28;20056;-87
2023/05/08 07:09:37;;;;;;;10.98;9.45;;;;;;;;;;5011129;28;20471;-88
2023/05/08 07:12:22;;;;;;;10.07;8.63;;;;;;;;;;5010724;28;20064;-87
2023/05/08 07:15:07;;;;;;;10.63;8.63;;;;;;;;;;5011925;28;20033;-87
2023/05/08 07:17:51;;;;;;;11.98;8.93;;;;;;;;;;5010724;28;20041;-89
2023/05/08 07:20:36;;;;;;;11.23;9.25;;;;;;;;;;4978837;28;20069;-89
2023/05/08 07:23:20;;;;;;;10.85;8.85;;;;;;;;;;5012684;28;20567;-88
2023/05/08 07:26:05;;;;;;;10.77;9.18;;;;;;;;;;4998108;28;20517;-89
2023/05/08 07:28:53;;;;;;;10.88;8.88;;;;;;;;;;4979114;28;20041;-88
2023/05/08 07:31:40;;;;;;;13.60;9.43;;;;;;;;;;4994085;28;20043;-88
2023/05/08 07:34:25;;;;;;;10.95;8.75;;;;;;;;;;4996558;28;20092;-88
2023/05/08 07:37:10;;;;;;;12.55;9.05;;;;;;;;;;5013996;28;20506;-87
2023/05/08 07:39:55;;;;;;;12.45;9.52;;;;;;;;;;4994015;28;20447;-87
2023/05/08 07:42:40;;;;;;;12.57;9.40;;;;;;;;;;4992392;28;20117;-88
2023/05/08 07:45:25;;;;;;;12.00;8.85;;;;;;;;;;4990745;28;20144;-88
2023/05/08 07:48:10;;;;;;;14.00;9.27;;;;;;;;;;5001774;28;20049;-87
2023/05/08 07:50:55;;;;;;;11.30;8.93;;;;;;;;;;4982875;28;20048;-88
2023/05/08 07:53:39;;;;;;;12.02;10.00;;;;;;;;;;5009869;28;20072;-88
2023/05/08 07:56:24;;;;;;;13.30;9.80;;;;;;;;;;4996795;28;20073;-87
2023/05/08 07:59:09;;;;;;;12.93;9.57;;;;;;;;;;5011315;28;20087;-87
2023/05/08 08:01:54;;;;;;;12.45;10.18;;;;;;;;;;5011106;28;20092;-89
2023/05/08 08:04:38;;;;;;;11.63;9.57;;;;;;;;;;4997164;28;20521;-88
2023/05/08 08:07:23;;;;;;;13.10;9.57;;;;;;;;;;4982194;28;20049;-87
2023/05/08 08:10:08;;;;;;;10.95;9.48;;;;;;;;;;5009845;28;20092;-88
2023/05/08 08:12:53;;;;;;;12.60;10.52;;;;;;;;;;4995423;28;20574;-88
2023/05/08 08:15:38;;;;;;;11.70;9.00;;;;;;;;;;4982276;28;20459;-88
2023/05/08 08:18:23;;;;;;;11.85;9.52;;;;;;;;;;4998909;28;20117;-88
2023/05/08 08:21:07;;;;;;;12.27;9.88;;;;;;;;;;5011221;28;20049;-88
2023/05/08 08:23:52;;;;;;;10.00;8.75;;;;;;;;;;5010663;28;20160;-87
2023/05/08 08:26:36;;;;;;;11.80;9.15;;;;;;;;;;4995718;28;20532;-88
2023/05/08 08:29:21;;;;;;;12.88;10.23;;;;;;;;;;4996156;28;20048;-88
2023/05/08 08:32:05;;;;;;;12.77;9.40;;;;;;;;;;5010191;28;20045;-88
2023/05/08 08:34:50;;;;;;;11.20;9.00;;;;;;;;;;5010433;28;20464;-88
2023/05/08 08:37:34;;;;;;;13.90;9.48;;;;;;;;;;5010890;28;20057;-87
2023/05/08 08:40:19;;;;;;;12.80;9.82;;;;;;;;;;5010141;28;20044;-87
2023/05/08 08:43:04;;;;;;;11.20;9.02;;;;;;;;;;5010930;28;20095;-88
2023/05/08 08:45:49;;;;;;;12.35;9.10;;;;;;;;;;4998462;28;20040;-88
2023/05/08 08:48:34;;;;;;;9.98;8.77;;;;;;;;;;5013290;28;20081;-88
2023/05/08 08:51:37;;;;;;;11.27;9.00;;;;;;;;;;5001196;28;20096;-87
2023/05/08 08:54:30;;;;;;;10.75;9.32;;;;;;;;;;5014381;28;20110;-88
2023/05/08 08:57:15;;;;;;;11.85;9.27;;;;;;;;;;5014189;28;20037;-88
2023/05/08 09:00:05;;;;;;;11.68;9.70;;;18.40;99.90;;;;;;5013813;28;20206;-87
2023/05/08 09:02:50;;;;;;;11.05;9.38;;;;;;;;;;5013746;28;20032;-87
2023/05/08 09:05:35;;;;;;;9.93;8.88;;;;;;;;;;5013045;28;20045;-88
2023/05/08 09:08:20;;;;;;;12.02;9.23;;;;;;;;;;5013237;28;20434;-88
2023/05/08 09:11:05;;;;;;;13.32;9.70;;;;;;;;;;4998992;28;20072;-88
2023/05/08 09:13:50;;;;;;;10.40;9.30;;;;;;;;;;5013563;28;20040;-88
2023/05/08 09:16:35;;;;;;;11.07;9.25;;;;;;;;;;4979888;28;20097;-88
2023/05/08 09:19:20;;;;;;;10.48;9.27;;;;;;;;;;5009551;28;20064;-88
2023/05/08 09:22:08;;;;;;;12.95;9.60;;;;;;;;;;5012381;28;20069;-88
2023/05/08 09:24:57;;;;;;;10.80;9.05;;;;;;;;;;5027082;28;20037;-89
2023/05/08 09:27:41;;;;;;;12.75;9.95;;;;;;;;;;5013720;28;20128;-89
2023/05/08 09:30:26;;;;;;;12.38;9.48;;;;;;;;;;5011951;28;20059;-88
2023/05/08 09:33:10;;;;;;;11.85;10.43;;;;;;;;;;4996546;28;20076;-88
2023/05/08 09:35:56;;;;;;;11.25;9.35;;;;;;;;;;5016673;28;20073;-86
2023/05/08 09:38:42;;;;;;;11.90;9.75;;;;;;;;;;4999342;28;20060;-87
2023/05/08 09:41:27;;;;;;;10.63;9.23;;;;;;;;;;5005366;28;20045;-87
2023/05/08 09:44:12;;;;;;;10.98;9.32;;;;;;;;;;5006871;28;20040;-87
2023/05/08 09:47:12;;;;;;;10.35;9.07;;;;;;;;;;5002232;28;20492;-87
2023/05/08 09:50:00;;;;;;;11.45;9.52;;;;;;;;;;5013415;28;20129;-87
2023/05/08 09:52:49;;;;;;;14.23;9.43;;;;;;;;;;5012145;28;20044;-88
2023/05/08 09:55:47;;;;;;;12.18;9.45;;;;;;;;;;5012676;28;20057;-87
2023/05/08 09:58:41;;;;;;;10.68;9.25;;;;;;;;;;5013108;28;20131;-88
2023/05/08 10:01:28;;;;;;;11.63;10.30;;;;;;;;;;5003022;28;20045;-89
2023/05/08 10:04:12;;;;;;;12.52;10.75;;;;;;;;;;4997747;28;20510;-88
2023/05/08 10:06:57;;;;;;;11.10;9.95;;;;;;;;;;4997723;28;20052;-88
2023/05/08 10:09:57;;;;;;;13.15;8.52;;;;;;;;;;4999483;28;20454;-88
2023/05/08 10:12:42;;;;;;;11.73;9.10;;;;;;;;;;5012796;28;20072;-88
2023/05/08 10:15:30;;;;;;;11.70;9.70;;;;;;;;;;5022324;28;20084;-88
2023/05/08 10:18:17;;;;;;;10.50;8.98;;;;;;;;;;5002836;28;20396;-89
2023/05/08 10:21:04;;;;;;;10.13;8.80;;;;;;;;;;5000547;28;20517;-88
2023/05/08 10:23:50;;;;;;;10.52;9.07;;;;;;;;;;5021054;28;20084;-88
2023/05/08 10:26:36;;;;;;;11.27;9.75;;;;;;;;;;4998468;28;20083;-88
2023/05/08 10:29:24;;;;;;;11.30;8.48;;;;;;;;;;5013415;28;20501;-89
2023/05/08 10:32:10;;;;;;;11.60;9.95;;;;;;;;;;5022949;28;20045;-88
2023/05/08 10:35:02;;;;;;;12.02;9.85;;;;;;;;;;5008709;28;20083;-89
2023/05/08 10:37:48;;;;;;;10.95;8.68;;;;;;;;;;5005290;28;20052;-88
2023/05/08 10:40:32;;;;;;;11.45;9.23;;;;;;;;;;4998173;28;20040;-88
2023/05/08 10:43:18;;;;;;;10.70;8.13;;;;;;;;;;5000569;28;20036;-88
2023/05/08 10:46:07;;;;;;;10.90;8.90;;;;;;;;;;5020465;28;20040;-88
2023/05/08 10:49:11;;;;;;;12.32;9.80;;;;;;;;;;5015348;28;20036;-88
2023/05/08 10:52:01;;;;;;;10.65;9.23;;;;;;;;;;5006778;28;20048;-89
2023/05/08 10:54:49;;;;;;;13.50;10.77;;;;;;;;;;5015366;28;20040;-89
2023/05/08 10:57:34;;;;;;;11.30;10.07;;;;;;;;;;5015286;28;20509;-89
2023/05/08 11:00:18;;;;;;;10.93;9.77;;;;;;;;;;4996314;28;20117;-90
2023/05/08 11:03:08;;;;;;;10.82;9.48;;;;;;;;;;5017812;28;20033;-90
2023/05/08 11:05:53;;;;;;;10.95;9.82;;;23.50;97.00;;;;;;5006134;28;20032;-89
2023/05/08 11:08:53;;;;;;;11.02;9.82;;;23.50;97.00;;;;;;5017919;28;20077;-89
2023/05/08 11:11:38;;;;;;;13.18;9.20;;;;;;;;;;5003542;28;20044;-91
2023/05/08 11:14:23;;;;;;;12.45;9.88;;;;;;;;;;5005964;28;20539;-89
2023/05/08 11:17:09;;;;;;;12.68;10.10;;;;;;;;;;5018056;28;20037;-90
2023/05/08 11:19:58;;;;;;;11.52;9.98;;;;;;;;;;4995683;28;20056;-89
2023/05/08 11:22:47;;;;;;;11.45;10.25;;;24.00;96.80;;;;;;5019568;28;20045;-89
2023/05/08 11:25:42;;;;;;;12.25;10.18;;;;;;;;;;5004373;28;20044;-90
2023/05/08 11:28:27;;;;;;;12.30;9.63;;;;;;;;;;4994927;28;20048;-92
2023/05/08 11:31:12;;;;;;;15.15;9.27;;;;;;;;;;5017100;28;20126;-91
2023/05/08 11:33:56;;;;;;;10.32;9.23;;;;;;;;;;4995477;28;20049;-91
2023/05/08 11:37:00;;;;;;;13.35;10.73;;;;;;;;;;5006653;28;20082;-91
2023/05/08 11:39:44;;;;;;;12.60;9.00;;;;;;;;;;5014459;28;20096;-90
2023/05/08 11:42:29;;;;;;;10.20;9.20;;;;;;;;;;5004263;28;20097;-92
2023/05/08 11:45:15;;;;;;;10.43;8.90;;;;;;;;;;5021252;28;20467;-91
2023/05/08 11:48:00;;;;;;;11.15;8.70;;;;;;;;;;4991178;28;20085;-92
2023/05/08 11:50:45;;;;;;;9.77;8.00;;;;;;;;;;4982715;28;20052;-91
2023/05/08 11:53:31;;;;;;;9.75;7.75;;;;;;;;;;5010566;28;20041;-91
2023/05/08 11:56:15;;;;;;;12.68;8.10;;;;;;;;;;4998218;28;20033;-92
2023/05/08 11:59:07;;;;;;;8.25;6.28;;;;;;;;;;5011326;28;20077;-90
2023/05/08 12:01:52;;;;;;;10.55;8.02;;;;;;;;;;5011386;28;20080;-90
2023/05/08 12:04:44;;;;;;;11.57;9.60;;;;;;;;;;4998219;28;20076;-91
2023/05/08 12:07:29;;;;;;;10.95;9.43;;;;;;;;;;5011982;28;20049;-91
2023/05/08 12:10:14;;;;;;;11.25;8.70;;;;;;;;;;5024357;28;20053;-91
2023/05/08 12:12:59;;;;;;;9.07;8.07;;;;;;;;;;5015670;28;20043;-89
2023/05/08 12:15:43;;;;;;;13.40;9.73;;;;;;;;;;4998145;28;20080;-91
2023/05/08 12:18:29;;;;;;;10.43;8.10;;;;;;;;;;5025052;28;20501;-91
2023/05/08 12:21:14;;;;;;;11.18;10.07;;;;;;;;;;5005085;28;20068;-90
2023/05/08 12:23:59;;;;;;;11.40;9.57;;;25.20;93.00;;;;;;5002265;28;20106;-93
2023/05/08 12:26:44;;;;;;;13.25;8.73;;;;;;;;;;5021564;28;20712;-91
2023/05/08 12:29:29;;;;;;;10.82;9.20;;;;;;;;;;5004387;28;20060;-92
2023/05/08 12:32:13;;;;;;;18.40;10.02;;;;;;;;;;5026571;28;20119;-90
2023/05/08 12:34:59;;;;;;;11.45;9.07;;;;;;;;;;4997678;28;20528;-92
2023/05/08 12:37:47;;;;;;;10.32;8.82;;;;;;;;;;5024088;28;20036;-90
2023/05/08 12:40:33;;;;;;;11.85;8.90;;;;;;;;;;5022438;28;20099;-93
2023/05/08 12:43:18;;;;;;;9.60;8.00;;;;;;;;;;5004677;28;20040;-90
2023/05/08 12:46:03;;;;;;;11.52;8.98;;;;;;;;;;5027700;28;20036;-90
2023/05/08 12:48:48;;;;;;;7.20;6.10;;;;;;;;;;5013266;28;20040;-92
2023/05/08 12:51:44;;;;;;;8.68;6.88;;;25.10;92.50;;;;;;5000201;28;20065;-92
2023/05/08 12:54:35;;;;;;;11.63;7.97;;;;;;;;;;4987944;28;20044;-92
2023/05/08 12:57:21;;;;;;;10.55;7.80;;;;;;;;;;5002398;28;20084;-91
2023/05/08 13:00:06;;;;;;;11.80;8.05;;;;;;;;;;4993868;28;20112;-89
2023/05/08 13:02:54;;;;;;;10.88;8.25;;;;;;;;;;5000154;28;20107;-90
2023/05/08 13:05:44;;;;;;;11.32;8.35;;;;;;;;;;5016178;28;20077;-89
2023/05/08 13:08:36;;;;;;;10.50;7.80;;;24.40;93.00;;;;;;5016908;28;20130;-90
2023/05/08 13:11:29;;;;;;;10.77;7.70;;;24.60;92.90;;;;;;5032183;28;20048;-90
2023/05/08 13:14:13;;;;;;;12.18;7.22;;;;;;;;;;5015898;28;20064;-92
2023/05/08 13:16:58;;;;;;;11.05;7.18;;;;;;;;;;5017570;28;20040;-90
2023/05/08 13:19:43;;;;;;;11.95;7.57;;;;;;;;;;5015216;28;20049;-89
2023/05/08 13:22:27;;;;;;;11.43;7.80;;;;;;;;;;5016043;28;20121;-90
2023/05/08 13:25:14;;;;;;;11.73;9.00;;;;;;;;;;5005291;28;20103;-91
2023/05/08 13:28:02;;;;;;;12.63;9.35;;;24.90;91.60;;;;;;5025907;28;20040;-90
2023/05/08 13:30:47;;;;;;;10.45;9.07;;;;;;;;;;5002645;28;20215;-90
2023/05/08 13:33:31;;;;;;;15.30;10.55;;;;;;;;;;5005260;28;20132;-89
2023/05/08 13:36:16;;;;;;;12.43;9.32;;;;;;;;;;5024266;28;20041;-91
2023/05/08 13:39:01;;;;;;;11.27;8.52;;;;;;;;;;5032244;28;20398;-90
2023/05/08 13:41:45;;;;;;;11.27;9.88;;;;;;;;;;5015714;28;20040;-89
2023/05/08 13:44:30;;;;;;;9.55;8.30;;;;;;;;;;5016426;28;20076;-91
2023/05/08 13:47:14;;;;;;;13.45;10.27;;;;;;;;;;4997669;28;20036;-91
2023/05/08 13:49:59;;;;;;;13.00;10.98;;;;;;;;;;4983144;28;20072;-90
2023/05/08 13:52:43;;;;;;;10.90;9.48;;;;;;;;;;5007176;28;20037;-90
2023/05/08 13:55:28;;;;;;;13.13;11.18;;;;;;;;;;5002718;28;20402;-90
2023/05/08 13:58:12;;;;;;;13.18;10.77;;;;;;;;;;4998703;28;20092;-90
2023/05/08 14:00:57;;;;;;;15.00;10.73;;;;;;;;;;5013305;28;20399;-89
2023/05/08 14:03:41;;;;;;;14.38;9.70;;;;;;;;;;5011838;28;20129;-90
2023/05/08 14:06:25;;;;;;;10.60;8.23;;;;;;;;;;4997872;28;20041;-90
2023/05/08 14:09:10;;;;;;;10.75;8.98;;;;;;;;;;4984615;28;20160;-90
2023/05/08 14:11:54;;;;;;;12.13;9.13;;;;;;;;;;4984813;28;20099;-90
2023/05/08 14:14:39;;;;;;;8.52;6.85;;;;;;;;;;4997745;28;20092;-90
2023/05/08 14:17:23;;;;;;;10.88;7.65;;;;;;;;;;5011519;28;20048;-89
2023/05/08 14:20:08;;;;;;;11.85;8.13;;;;;;;;;;4998203;28;20112;-90
2023/05/08 14:22:52;;;;;;;11.15;9.10;;;;;;;;;;4981348;28;20084;-89
2023/05/08 14:25:37;;;;;;;12.45;8.75;;;;;;;;;;4997652;28;20550;-90
2023/05/08 14:28:22;;;;;;;11.52;10.05;;;;;;;;;;4998075;28;20037;-92
2023/05/08 14:31:06;;;;;;;10.15;8.07;;;;;;;;;;4997874;28;20188;-88
2023/05/08 14:33:51;;;;;;;10.13;7.70;;;;;;;;;;5012767;28;20125;-90
2023/05/08 14:36:35;;;;;;;9.85;7.05;;;;;;;;;;4983482;28;20037;-90
2023/05/08 14:39:20;;;;;;;8.23;6.55;;;;;;;;;;5011666;28;20040;-90
2023/05/08 14:42:04;;;;;;;8.82;5.85;;;;;;;;;;4997817;28;20529;-91
2023/05/08 14:44:49;;;;;;;7.82;6.22;;;;;;;;;;5025900;28;20099;-90
2023/05/08 14:47:33;;;;;;;8.80;6.60;;;;;;;;;;5012103;28;20419;-91
2023/05/08 14:50:18;;;;;;;8.27;6.72;;;;;;;;;;4978696;28;20046;-90
2023/05/08 14:53:03;;;;;;;9.52;7.47;;;;;;;;;;4983937;28;20068;-89
2023/05/08 14:55:47;;;;;;;8.18;6.75;;;;;;;;;;5010295;28;20357;-91
2023/05/08 14:58:34;;;;;;;9.85;7.43;;;;;;;;;;5007518;28;20489;-89
2023/05/08 15:01:19;;;;;;;11.40;8.52;;;;;;;;;;4997860;28;20107;-90
2023/05/08 15:04:04;;;;;;;10.88;8.00;;;;;;;;;;4990099;28;20045;-89
2023/05/08 15:06:48;;;;;;;10.27;7.70;;;;;;;;;;5006195;28;20040;-88
2023/05/08 15:09:33;;;;;;;12.30;8.57;;;;;;;;;;5000415;28;20045;-93
2023/05/08 15:12:22;;;;;;;10.05;8.63;;;;;;;;;;4992461;28;20116;-93
2023/05/08 15:15:07;;;;;;;11.43;10.02;;;;;;;;;;5002912;28;20037;-92
2023/05/08 15:17:51;;;;;;;15.15;10.40;;;;;;;;;;5002268;28;20567;-92
2023/05/08 15:20:36;;;;;;;16.55;11.55;;;;;;;;;;5000338;28;20069;-92
2023/05/08 15:23:21;;;;;;;14.75;12.25;;;;;;;;;;5019431;28;20092;-92
2023/05/08 15:26:07;;;;;;;16.20;14.35;;;;;;;;;;4989997;28;20045;-91
2023/05/08 15:28:52;;;;;;;19.02;14.55;;;;;;;;;;4996877;28;20037;-92
2023/05/08 15:31:36;;;;;;;16.95;12.18;;;;;;;;;;5022276;28;20036;-94
2023/05/08 15:34:21;;;;;;;14.18;12.68;;;;;;;;;;4983352;28;20069;-93
2023/05/08 15:37:06;;;;;;;14.43;11.70;;;;;;;;;;5011049;28;20052;-90
2023/05/08 15:39:50;;;;;;;12.20;10.98;;;;;;;;;;5022714;28;20053;-92
2023/05/08 15:42:37;;;;;;;14.30;10.80;;;;;;;;;;5011336;28;20556;-92
2023/05/08 15:45:22;;;;;;;13.93;12.27;;;;;;;;;;5005880;28;20067;-91
2023/05/08 15:48:06;;;;;;;14.43;12.98;;;;;;;;;;5004779;28;20036;-90
2023/05/08 15:50:51;;;;;;;15.13;12.95;;;;;;;;;;4995260;28;20389;-90
2023/05/08 15:53:35;;;;;;;15.50;13.32;;;;;;;;;;5010451;28;20084;-89
2023/05/08 15:56:25;;;;;;;17.42;13.30;;;;;;;;;;5004373;28;20044;-91
2023/05/08 15:59:10;;;;;;;13.63;12.00;;;;;;;;;;5014839;28;20052;-90
2023/05/08 16:01:57;;;;;;;16.95;12.02;;;;;;;;;;5015360;28;20045;-90
2023/05/08 16:04:42;;;;;;;16.20;12.55;;;;;;;;;;5007609;28;20044;-89
2023/05/08 16:07:26;;;;;;;15.60;11.32;;;;;;;;;;4992526;28;20048;-89
2023/05/08 16:10:11;;;;;;;11.57;10.00;;;;;;;;;;5020515;28;20061;-91